Aérodrome :
LOGIN :

S'inscrire | Disclaimer

   EN    FR    IT 

 










Légende :    VFR   VFR Marginal   IFR   IFR Intensif   IFR Très Intensif
Visi : 
Plafond : 
>= 8 km
>= 3000ft
5 à 8 km
1000 à 3000 ft
1500m à 5 km
500 à 1000 ft
800 à 1500m
200 à 500 ft
< 800m
< 200 ft
Symboles :   Orages  Brouillard  Fortes neiges  Fortes précipitations  Vent > 20 kt
SIGMETs :   Divers  Orages  Givrage  Turbulence  Onde Orograph.  Cendres Volcan.






- Altitude de l'aérodrome : 121 ft
- Code IATA : HUY


EGNJ - Humberside

DERNIER METAR :
  • 141420Z 01014KT 4000 SHRA SCT010 SCT020CB BKN024 06/05 Q1000

METARs EXPIRÉS :
  • 141350Z 05017KT 4000 SHRA SCT010 SCT020CB BKN024 06/06 Q1000
  • 141320Z 04018KT 010V080 3000 SHRA SCT008 SCT020CB BKN024 07/06 Q1000
  • 141250Z 02021KT 9000 SCT013 BKN024 07/05 Q0999
  • 141220Z 03020KT 9000 -RA SCT013 BKN023 07/05 Q0999

TAF TAF EGNJ
Valide du 14 à 12h jusqu'au 14 à 21h UTC


141108Z 1412/1421 01014KT 9999 SCT020
BECMG 1412/1415 8000 -RA BKN010
TEMPO 1412/1421 RA BKN008
TEMPO 1412/1419 02017G27KT
PROB40
TEMPO 1412/1418 4000 +RA
ATIS : +44 1652 682 020



MET'MAP, la Météo Aéronautique d'un coup d'oeil ! - Copyright ORBIFLY Décembre 2007 - Disclaimer

ORBIFLY MET'MAP TEAM :

Programmation & Développement : Alexandra Zaïnal
Conception & Développement : Baudouin d'Aumeries
Co-Programmation & Développement : Marc-Olivier Méhu
Soutien technique & logistique : Manuel Goepfert

Contact : metmap@orbifly.com




SOURCES & CREDITS :

   NOAA